sensor_id;sensor_type;location;lat;lon;timestamp;P1;durP1;ratioP1;P2;durP2;ratioP2
70946;SDS011;58605;48.700;8.760;2023-09-07T00:01:00;6.90;;;5.90;;
70946;SDS011;58605;48.700;8.760;2023-09-07T00:03:29;6.83;;;6.10;;
70946;SDS011;58605;48.700;8.760;2023-09-07T00:05:55;8.40;;;5.67;;
70946;SDS011;58605;48.700;8.760;2023-09-07T00:08:22;6.63;;;5.87;;
70946;SDS011;58605;48.700;8.760;2023-09-07T00:10:50;6.63;;;5.90;;
70946;SDS011;58605;48.700;8.760;2023-09-07T00:13:16;9.13;;;6.43;;
70946;SDS011;58605;48.700;8.760;2023-09-07T00:15:42;7.70;;;6.90;;
70946;SDS011;58605;48.700;8.760;2023-09-07T00:18:10;6.67;;;5.83;;
70946;SDS011;58605;48.700;8.760;2023-09-07T00:20:37;7.00;;;6.30;;
70946;SDS011;58605;48.700;8.760;2023-09-07T00:23:03;8.10;;;5.77;;
70946;SDS011;58605;48.700;8.760;2023-09-07T00:25:29;7.67;;;6.17;;
70946;SDS011;58605;48.700;8.760;2023-09-07T00:27:56;9.00;;;6.40;;
70946;SDS011;58605;48.700;8.760;2023-09-07T00:30:22;6.80;;;5.97;;
70946;SDS011;58605;48.700;8.760;2023-09-07T00:32:48;5.97;;;5.37;;
70946;SDS011;58605;48.700;8.760;2023-09-07T00:35:16;6.77;;;5.83;;
70946;SDS011;58605;48.700;8.760;2023-09-07T00:37:43;6.63;;;5.87;;
70946;SDS011;58605;48.700;8.760;2023-09-07T00:40:09;9.37;;;6.47;;
70946;SDS011;58605;48.700;8.760;2023-09-07T00:42:36;6.93;;;5.80;;
70946;SDS011;58605;48.700;8.760;2023-09-07T00:45:02;6.87;;;5.80;;
70946;SDS011;58605;48.700;8.760;2023-09-07T00:47:29;8.07;;;5.77;;
70946;SDS011;58605;48.700;8.760;2023-09-07T00:49:59;7.97;;;5.83;;
70946;SDS011;58605;48.700;8.760;2023-09-07T00:52:26;6.30;;;5.70;;
70946;SDS011;58605;48.700;8.760;2023-09-07T00:54:53;8.93;;;6.07;;
70946;SDS011;58605;48.700;8.760;2023-09-07T00:57:19;7.20;;;6.30;;
70946;SDS011;58605;48.700;8.760;2023-09-07T00:59:46;8.93;;;6.67;;
70946;SDS011;58605;48.700;8.760;2023-09-07T01:02:21;9.23;;;6.27;;
70946;SDS011;58605;48.700;8.760;2023-09-07T01:04:47;6.20;;;5.60;;
70946;SDS011;58605;48.700;8.760;2023-09-07T01:07:14;9.23;;;6.13;;
70946;SDS011;58605;48.700;8.760;2023-09-07T01:09:46;8.40;;;6.33;;
70946;SDS011;58605;48.700;8.760;2023-09-07T01:12:16;7.27;;;6.00;;
70946;SDS011;58605;48.700;8.760;2023-09-07T01:14:42;9.20;;;5.47;;
70946;SDS011;58605;48.700;8.760;2023-09-07T01:17:09;7.00;;;4.83;;
70946;SDS011;58605;48.700;8.760;2023-09-07T01:19:37;7.00;;;6.00;;
70946;SDS011;58605;48.700;8.760;2023-09-07T01:22:05;7.07;;;5.83;;
70946;SDS011;58605;48.700;8.760;2023-09-07T01:24:32;7.33;;;6.07;;
70946;SDS011;58605;48.700;8.760;2023-09-07T01:27:00;9.40;;;6.50;;
70946;SDS011;58605;48.700;8.760;2023-09-07T01:29:28;7.30;;;6.10;;
70946;SDS011;58605;48.700;8.760;2023-09-07T01:31:54;9.40;;;6.60;;
70946;SDS011;58605;48.700;8.760;2023-09-07T01:34:21;8.40;;;6.23;;
70946;SDS011;58605;48.700;8.760;2023-09-07T01:36:47;8.70;;;6.20;;
70946;SDS011;58605;48.700;8.760;2023-09-07T01:39:15;8.63;;;6.43;;
70946;SDS011;58605;48.700;8.760;2023-09-07T01:41:42;6.73;;;6.07;;
70946;SDS011;58605;48.700;8.760;2023-09-07T01:44:08;7.30;;;6.00;;
70946;SDS011;58605;48.700;8.760;2023-09-07T01:46:34;8.37;;;5.90;;
70946;SDS011;58605;48.700;8.760;2023-09-07T01:49:03;7.20;;;5.73;;
70946;SDS011;58605;48.700;8.760;2023-09-07T01:51:29;11.97;;;6.33;;
70946;SDS011;58605;48.700;8.760;2023-09-07T01:53:56;8.27;;;6.40;;
70946;SDS011;58605;48.700;8.760;2023-09-07T01:56:23;11.77;;;4.97;;
70946;SDS011;58605;48.700;8.760;2023-09-07T01:58:49;8.07;;;6.17;;
70946;SDS011;58605;48.700;8.760;2023-09-07T02:04:37;7.50;;;6.30;;
70946;SDS011;58605;48.700;8.760;2023-09-07T02:07:04;6.93;;;5.60;;
70946;SDS011;58605;48.700;8.760;2023-09-07T02:09:31;8.30;;;5.80;;
70946;SDS011;58605;48.700;8.760;2023-09-07T02:11:58;10.10;;;6.60;;
70946;SDS011;58605;48.700;8.760;2023-09-07T02:14:24;6.80;;;6.10;;
70946;SDS011;58605;48.700;8.760;2023-09-07T02:16:51;8.67;;;6.67;;
70946;SDS011;58605;48.700;8.760;2023-09-07T02:19:17;7.13;;;6.23;;
70946;SDS011;58605;48.700;8.760;2023-09-07T02:21:43;7.87;;;6.63;;
70946;SDS011;58605;48.700;8.760;2023-09-07T02:24:09;6.57;;;5.83;;
70946;SDS011;58605;48.700;8.760;2023-09-07T02:26:35;7.23;;;6.33;;
70946;SDS011;58605;48.700;8.760;2023-09-07T02:29:03;12.87;;;6.37;;
70946;SDS011;58605;48.700;8.760;2023-09-07T02:31:31;7.70;;;6.63;;
70946;SDS011;58605;48.700;8.760;2023-09-07T02:33:57;8.10;;;5.70;;
70946;SDS011;58605;48.700;8.760;2023-09-07T02:36:23;7.20;;;6.37;;
70946;SDS011;58605;48.700;8.760;2023-09-07T02:38:50;10.10;;;6.70;;
70946;SDS011;58605;48.700;8.760;2023-09-07T02:41:16;8.87;;;6.87;;
70946;SDS011;58605;48.700;8.760;2023-09-07T02:43:42;9.60;;;6.23;;
70946;SDS011;58605;48.700;8.760;2023-09-07T02:46:09;10.17;;;6.33;;
70946;SDS011;58605;48.700;8.760;2023-09-07T02:48:35;6.50;;;5.90;;
70946;SDS011;58605;48.700;8.760;2023-09-07T02:51:01;8.87;;;6.80;;
70946;SDS011;58605;48.700;8.760;2023-09-07T02:53:28;7.40;;;6.47;;
70946;SDS011;58605;48.700;8.760;2023-09-07T02:55:54;8.57;;;6.53;;
70946;SDS011;58605;48.700;8.760;2023-09-07T02:58:21;8.73;;;6.40;;
70946;SDS011;58605;48.700;8.760;2023-09-07T03:00:48;9.50;;;6.37;;
70946;SDS011;58605;48.700;8.760;2023-09-07T03:03:15;9.87;;;6.53;;
70946;SDS011;58605;48.700;8.760;2023-09-07T03:05:42;7.10;;;6.17;;
70946;SDS011;58605;48.700;8.760;2023-09-07T03:08:09;8.10;;;6.10;;
70946;SDS011;58605;48.700;8.760;2023-09-07T03:10:35;8.20;;;6.50;;
70946;SDS011;58605;48.700;8.760;2023-09-07T03:13:01;8.13;;;6.13;;
70946;SDS011;58605;48.700;8.760;2023-09-07T03:15:28;7.93;;;5.90;;
70946;SDS011;58605;48.700;8.760;2023-09-07T03:17:55;6.37;;;5.10;;
70946;SDS011;58605;48.700;8.760;2023-09-07T03:20:22;7.47;;;5.40;;
70946;SDS011;58605;48.700;8.760;2023-09-07T03:22:48;7.40;;;6.37;;
70946;SDS011;58605;48.700;8.760;2023-09-07T03:25:14;6.03;;;5.20;;
70946;SDS011;58605;48.700;8.760;2023-09-07T03:27:40;7.43;;;5.60;;
70946;SDS011;58605;48.700;8.760;2023-09-07T03:30:06;9.93;;;5.63;;
70946;SDS011;58605;48.700;8.760;2023-09-07T03:32:33;7.07;;;6.17;;
70946;SDS011;58605;48.700;8.760;2023-09-07T03:34:59;7.27;;;5.93;;
70946;SDS011;58605;48.700;8.760;2023-09-07T03:37:28;7.97;;;6.67;;
70946;SDS011;58605;48.700;8.760;2023-09-07T03:39:54;7.63;;;6.30;;
70946;SDS011;58605;48.700;8.760;2023-09-07T03:42:21;6.90;;;6.20;;
70946;SDS011;58605;48.700;8.760;2023-09-07T03:44:47;6.50;;;5.57;;
70946;SDS011;58605;48.700;8.760;2023-09-07T03:47:14;7.17;;;5.37;;
70946;SDS011;58605;48.700;8.760;2023-09-07T03:49:40;7.53;;;5.93;;
70946;SDS011;58605;48.700;8.760;2023-09-07T03:52:06;7.13;;;5.67;;
70946;SDS011;58605;48.700;8.760;2023-09-07T03:54:34;8.63;;;5.83;;
70946;SDS011;58605;48.700;8.760;2023-09-07T03:57:00;6.20;;;5.37;;
70946;SDS011;58605;48.700;8.760;2023-09-07T03:59:27;7.77;;;5.50;;
70946;SDS011;58605;48.700;8.760;2023-09-07T04:01:53;7.70;;;5.87;;
70946;SDS011;58605;48.700;8.760;2023-09-07T04:04:19;8.23;;;6.17;;
70946;SDS011;58605;48.700;8.760;2023-09-07T04:06:46;7.53;;;6.33;;
70946;SDS011;58605;48.700;8.760;2023-09-07T04:09:13;6.27;;;5.27;;
70946;SDS011;58605;48.700;8.760;2023-09-07T04:11:41;6.70;;;5.33;;
70946;SDS011;58605;48.700;8.760;2023-09-07T04:14:07;6.37;;;5.77;;
70946;SDS011;58605;48.700;8.760;2023-09-07T04:16:33;8.80;;;5.37;;
70946;SDS011;58605;48.700;8.760;2023-09-07T04:18:59;7.53;;;5.53;;
70946;SDS011;58605;48.700;8.760;2023-09-07T04:21:26;66.53;;;9.47;;
70946;SDS011;58605;48.700;8.760;2023-09-07T04:23:52;107.50;;;10.90;;
70946;SDS011;58605;48.700;8.760;2023-09-07T04:26:18;129.60;;;11.40;;
70946;SDS011;58605;48.700;8.760;2023-09-07T04:28:46;7.50;;;6.53;;
70946;SDS011;58605;48.700;8.760;2023-09-07T04:31:12;8.50;;;6.13;;
70946;SDS011;58605;48.700;8.760;2023-09-07T04:33:38;10.43;;;7.13;;
70946;SDS011;58605;48.700;8.760;2023-09-07T04:36:08;7.43;;;5.87;;
70946;SDS011;58605;48.700;8.760;2023-09-07T04:38:37;8.03;;;6.80;;
70946;SDS011;58605;48.700;8.760;2023-09-07T04:41:07;8.60;;;6.47;;
70946;SDS011;58605;48.700;8.760;2023-09-07T04:43:34;7.70;;;6.37;;
70946;SDS011;58605;48.700;8.760;2023-09-07T04:46:01;8.60;;;5.97;;
70946;SDS011;58605;48.700;8.760;2023-09-07T04:48:28;8.07;;;5.80;;
70946;SDS011;58605;48.700;8.760;2023-09-07T04:50:57;6.53;;;5.70;;
70946;SDS011;58605;48.700;8.760;2023-09-07T04:53:23;7.80;;;5.97;;
70946;SDS011;58605;48.700;8.760;2023-09-07T04:55:49;10.57;;;6.57;;
70946;SDS011;58605;48.700;8.760;2023-09-07T04:58:15;6.30;;;5.50;;
70946;SDS011;58605;48.700;8.760;2023-09-07T05:00:41;8.60;;;6.83;;
70946;SDS011;58605;48.700;8.760;2023-09-07T05:03:09;7.07;;;6.37;;
70946;SDS011;58605;48.700;8.760;2023-09-07T05:05:35;7.40;;;6.70;;
70946;SDS011;58605;48.700;8.760;2023-09-07T05:08:01;8.87;;;6.40;;
70946;SDS011;58605;48.700;8.760;2023-09-07T05:10:29;8.47;;;6.27;;
70946;SDS011;58605;48.700;8.760;2023-09-07T05:12:55;8.70;;;5.87;;
70946;SDS011;58605;48.700;8.760;2023-09-07T05:15:21;6.53;;;5.83;;
70946;SDS011;58605;48.700;8.760;2023-09-07T05:17:47;8.33;;;6.17;;
70946;SDS011;58605;48.700;8.760;2023-09-07T05:20:15;7.70;;;6.03;;
70946;SDS011;58605;48.700;8.760;2023-09-07T05:22:41;8.10;;;6.03;;
70946;SDS011;58605;48.700;8.760;2023-09-07T05:25:07;8.83;;;6.33;;
70946;SDS011;58605;48.700;8.760;2023-09-07T05:27:33;8.33;;;6.20;;
70946;SDS011;58605;48.700;8.760;2023-09-07T05:30:00;7.03;;;6.20;;
70946;SDS011;58605;48.700;8.760;2023-09-07T05:32:26;8.10;;;7.03;;
70946;SDS011;58605;48.700;8.760;2023-09-07T05:34:52;8.83;;;7.23;;
70946;SDS011;58605;48.700;8.760;2023-09-07T05:37:20;8.67;;;6.20;;
70946;SDS011;58605;48.700;8.760;2023-09-07T05:39:47;7.73;;;6.93;;
70946;SDS011;58605;48.700;8.760;2023-09-07T05:42:14;8.80;;;6.07;;
70946;SDS011;58605;48.700;8.760;2023-09-07T05:44:40;8.63;;;6.83;;
70946;SDS011;58605;48.700;8.760;2023-09-07T05:47:06;7.10;;;6.23;;
70946;SDS011;58605;48.700;8.760;2023-09-07T05:49:32;7.80;;;6.30;;
70946;SDS011;58605;48.700;8.760;2023-09-07T05:51:58;7.30;;;6.00;;
70946;SDS011;58605;48.700;8.760;2023-09-07T05:54:25;8.33;;;6.77;;
70946;SDS011;58605;48.700;8.760;2023-09-07T05:56:51;15.03;;;7.57;;
70946;SDS011;58605;48.700;8.760;2023-09-07T05:59:18;10.97;;;8.17;;
70946;SDS011;58605;48.700;8.760;2023-09-07T06:01:44;12.67;;;8.37;;
70946;SDS011;58605;48.700;8.760;2023-09-07T06:04:10;9.87;;;7.20;;
70946;SDS011;58605;48.700;8.760;2023-09-07T06:06:37;8.77;;;7.10;;
70946;SDS011;58605;48.700;8.760;2023-09-07T06:09:03;8.17;;;6.23;;
70946;SDS011;58605;48.700;8.760;2023-09-07T06:11:31;12.07;;;7.40;;
70946;SDS011;58605;48.700;8.760;2023-09-07T06:13:58;10.30;;;7.10;;
70946;SDS011;58605;48.700;8.760;2023-09-07T06:16:24;8.60;;;7.07;;
70946;SDS011;58605;48.700;8.760;2023-09-07T06:18:50;11.47;;;8.13;;
70946;SDS011;58605;48.700;8.760;2023-09-07T06:21:17;10.73;;;6.87;;
70946;SDS011;58605;48.700;8.760;2023-09-07T06:23:43;12.90;;;7.83;;
70946;SDS011;58605;48.700;8.760;2023-09-07T06:26:15;12.27;;;8.03;;
70946;SDS011;58605;48.700;8.760;2023-09-07T06:28:44;10.77;;;7.33;;
70946;SDS011;58605;48.700;8.760;2023-09-07T06:31:10;9.90;;;7.67;;
70946;SDS011;58605;48.700;8.760;2023-09-07T06:33:36;9.30;;;6.80;;
70946;SDS011;58605;48.700;8.760;2023-09-07T06:36:02;10.40;;;7.57;;
70946;SDS011;58605;48.700;8.760;2023-09-07T06:38:29;11.17;;;7.80;;
70946;SDS011;58605;48.700;8.760;2023-09-07T06:40:56;10.07;;;7.20;;
70946;SDS011;58605;48.700;8.760;2023-09-07T06:43:22;8.83;;;7.40;;
70946;SDS011;58605;48.700;8.760;2023-09-07T06:45:50;10.00;;;6.90;;
70946;SDS011;58605;48.700;8.760;2023-09-07T06:48:16;8.20;;;6.60;;
70946;SDS011;58605;48.700;8.760;2023-09-07T06:50:42;8.80;;;7.17;;
70946;SDS011;58605;48.700;8.760;2023-09-07T06:53:08;12.63;;;7.00;;
70946;SDS011;58605;48.700;8.760;2023-09-07T06:55:34;9.60;;;7.40;;
70946;SDS011;58605;48.700;8.760;2023-09-07T06:58:01;11.03;;;7.90;;
70946;SDS011;58605;48.700;8.760;2023-09-07T07:00:27;9.90;;;7.07;;
70946;SDS011;58605;48.700;8.760;2023-09-07T07:02:55;9.90;;;6.87;;
70946;SDS011;58605;48.700;8.760;2023-09-07T07:05:21;9.80;;;6.63;;
70946;SDS011;58605;48.700;8.760;2023-09-07T07:07:48;9.73;;;7.30;;
70946;SDS011;58605;48.700;8.760;2023-09-07T07:10:14;12.93;;;7.50;;
70946;SDS011;58605;48.700;8.760;2023-09-07T07:12:41;9.87;;;6.50;;
70946;SDS011;58605;48.700;8.760;2023-09-07T07:15:07;10.27;;;6.83;;
70946;SDS011;58605;48.700;8.760;2023-09-07T07:17:34;9.50;;;6.87;;
70946;SDS011;58605;48.700;8.760;2023-09-07T07:20:02;9.97;;;7.00;;
70946;SDS011;58605;48.700;8.760;2023-09-07T07:22:28;12.83;;;6.57;;
70946;SDS011;58605;48.700;8.760;2023-09-07T07:24:54;9.60;;;6.23;;
70946;SDS011;58605;48.700;8.760;2023-09-07T07:27:20;9.37;;;7.03;;
70946;SDS011;58605;48.700;8.760;2023-09-07T07:29:46;12.77;;;6.73;;
70946;SDS011;58605;48.700;8.760;2023-09-07T07:32:12;12.30;;;6.77;;
70946;SDS011;58605;48.700;8.760;2023-09-07T07:34:38;9.63;;;6.50;;
70946;SDS011;58605;48.700;8.760;2023-09-07T07:37:06;11.13;;;6.43;;
70946;SDS011;58605;48.700;8.760;2023-09-07T07:39:32;9.27;;;6.20;;
70946;SDS011;58605;48.700;8.760;2023-09-07T07:41:58;15.73;;;6.30;;
70946;SDS011;58605;48.700;8.760;2023-09-07T07:44:24;12.33;;;7.43;;
70946;SDS011;58605;48.700;8.760;2023-09-07T07:46:50;11.57;;;6.33;;
70946;SDS011;58605;48.700;8.760;2023-09-07T07:49:16;9.43;;;5.93;;
70946;SDS011;58605;48.700;8.760;2023-09-07T07:51:42;6.73;;;5.40;;
70946;SDS011;58605;48.700;8.760;2023-09-07T07:54:10;10.20;;;6.37;;
70946;SDS011;58605;48.700;8.760;2023-09-07T07:56:38;10.07;;;6.00;;
70946;SDS011;58605;48.700;8.760;2023-09-07T07:59:04;8.70;;;5.63;;
70946;SDS011;58605;48.700;8.760;2023-09-07T08:01:59;8.47;;;5.67;;
70946;SDS011;58605;48.700;8.760;2023-09-07T08:04:25;10.00;;;6.03;;
70946;SDS011;58605;48.700;8.760;2023-09-07T08:07:06;8.27;;;5.53;;
70946;SDS011;58605;48.700;8.760;2023-09-07T08:09:35;13.77;;;6.83;;
70946;SDS011;58605;48.700;8.760;2023-09-07T08:12:02;8.70;;;6.50;;
70946;SDS011;58605;48.700;8.760;2023-09-07T08:14:28;8.13;;;6.77;;
70946;SDS011;58605;48.700;8.760;2023-09-07T08:16:55;11.30;;;6.97;;
70946;SDS011;58605;48.700;8.760;2023-09-07T08:19:22;7.17;;;6.30;;
70946;SDS011;58605;48.700;8.760;2023-09-07T08:21:48;7.10;;;5.57;;
70946;SDS011;58605;48.700;8.760;2023-09-07T08:24:14;8.57;;;5.25;;
70946;SDS011;58605;48.700;8.760;2023-09-07T08:26:49;6.60;;;5.40;;
70946;SDS011;58605;48.700;8.760;2023-09-07T08:29:22;8.57;;;5.85;;
70946;SDS011;58605;48.700;8.760;2023-09-07T08:31:52;5.72;;;4.72;;
70946;SDS011;58605;48.700;8.760;2023-09-07T08:34:18;7.47;;;4.97;;
70946;SDS011;58605;48.700;8.760;2023-09-07T08:36:47;6.47;;;4.80;;
70946;SDS011;58605;48.700;8.760;2023-09-07T08:39:15;9.88;;;4.55;;
70946;SDS011;58605;48.700;8.760;2023-09-07T08:41:42;5.93;;;4.45;;
70946;SDS011;58605;48.700;8.760;2023-09-07T08:44:11;6.22;;;4.97;;
70946;SDS011;58605;48.700;8.760;2023-09-07T08:46:40;6.40;;;4.85;;
70946;SDS011;58605;48.700;8.760;2023-09-07T08:49:13;5.30;;;4.78;;
70946;SDS011;58605;48.700;8.760;2023-09-07T08:51:40;8.55;;;6.00;;
70946;SDS011;58605;48.700;8.760;2023-09-07T08:54:07;5.30;;;4.53;;
70946;SDS011;58605;48.700;8.760;2023-09-07T08:56:35;5.68;;;4.60;;
70946;SDS011;58605;48.700;8.760;2023-09-07T08:59:01;5.28;;;4.78;;
70946;SDS011;58605;48.700;8.760;2023-09-07T09:01:30;4.80;;;4.30;;
70946;SDS011;58605;48.700;8.760;2023-09-07T09:03:56;4.57;;;3.83;;
70946;SDS011;58605;48.700;8.760;2023-09-07T09:06:23;6.72;;;4.57;;
70946;SDS011;58605;48.700;8.760;2023-09-07T09:08:50;5.68;;;4.57;;
70946;SDS011;58605;48.700;8.760;2023-09-07T09:11:18;6.55;;;5.00;;
70946;SDS011;58605;48.700;8.760;2023-09-07T09:13:44;5.30;;;4.80;;
70946;SDS011;58605;48.700;8.760;2023-09-07T09:16:11;5.32;;;3.83;;
70946;SDS011;58605;48.700;8.760;2023-09-07T09:18:46;4.93;;;3.67;;
70946;SDS011;58605;48.700;8.760;2023-09-07T09:21:13;6.53;;;4.00;;
70946;SDS011;58605;48.700;8.760;2023-09-07T09:23:41;4.40;;;3.92;;
70946;SDS011;58605;48.700;8.760;2023-09-07T09:26:07;5.88;;;3.78;;
70946;SDS011;58605;48.700;8.760;2023-09-07T09:28:34;4.10;;;3.70;;
70946;SDS011;58605;48.700;8.760;2023-09-07T09:31:01;4.60;;;3.20;;
70946;SDS011;58605;48.700;8.760;2023-09-07T09:33:29;5.57;;;3.72;;
70946;SDS011;58605;48.700;8.760;2023-09-07T09:35:57;4.40;;;3.80;;
70946;SDS011;58605;48.700;8.760;2023-09-07T09:38:24;4.95;;;3.58;;
70946;SDS011;58605;48.700;8.760;2023-09-07T09:40:51;6.13;;;4.07;;
70946;SDS011;58605;48.700;8.760;2023-09-07T09:43:18;5.10;;;4.30;;
70946;SDS011;58605;48.700;8.760;2023-09-07T09:45:45;6.32;;;4.20;;
70946;SDS011;58605;48.700;8.760;2023-09-07T09:48:16;3.90;;;3.22;;
70946;SDS011;58605;48.700;8.760;2023-09-07T09:50:43;4.00;;;3.60;;
70946;SDS011;58605;48.700;8.760;2023-09-07T09:53:12;8.55;;;4.05;;
70946;SDS011;58605;48.700;8.760;2023-09-07T09:55:43;6.47;;;5.20;;
70946;SDS011;58605;48.700;8.760;2023-09-07T09:58:11;6.78;;;5.20;;
70946;SDS011;58605;48.700;8.760;2023-09-07T10:00:37;5.82;;;4.00;;
70946;SDS011;58605;48.700;8.760;2023-09-07T10:03:05;6.25;;;4.10;;
70946;SDS011;58605;48.700;8.760;2023-09-07T10:05:39;4.75;;;4.07;;
70946;SDS011;58605;48.700;8.760;2023-09-07T10:08:08;4.85;;;4.05;;
70946;SDS011;58605;48.700;8.760;2023-09-07T10:10:38;6.10;;;4.30;;
70946;SDS011;58605;48.700;8.760;2023-09-07T10:13:06;5.22;;;4.18;;
70946;SDS011;58605;48.700;8.760;2023-09-07T10:15:32;5.70;;;4.40;;
70946;SDS011;58605;48.700;8.760;2023-09-07T10:18:08;4.47;;;4.07;;
70946;SDS011;58605;48.700;8.760;2023-09-07T10:20:51;5.80;;;4.32;;
70946;SDS011;58605;48.700;8.760;2023-09-07T10:23:21;5.40;;;4.00;;
70946;SDS011;58605;48.700;8.760;2023-09-07T10:25:51;4.28;;;3.88;;
70946;SDS011;58605;48.700;8.760;2023-09-07T10:28:22;5.13;;;4.20;;
70946;SDS011;58605;48.700;8.760;2023-09-07T10:31:02;5.05;;;4.20;;
70946;SDS011;58605;48.700;8.760;2023-09-07T10:33:29;5.15;;;4.30;;
70946;SDS011;58605;48.700;8.760;2023-09-07T10:35:55;4.45;;;4.05;;
70946;SDS011;58605;48.700;8.760;2023-09-07T10:38:22;5.25;;;4.47;;
70946;SDS011;58605;48.700;8.760;2023-09-07T10:40:49;4.82;;;4.15;;
70946;SDS011;58605;48.700;8.760;2023-09-07T10:43:23;6.63;;;4.45;;
70946;SDS011;58605;48.700;8.760;2023-09-07T10:45:49;5.15;;;4.38;;
70946;SDS011;58605;48.700;8.760;2023-09-07T10:48:15;4.80;;;4.30;;
70946;SDS011;58605;48.700;8.760;2023-09-07T10:50:42;4.63;;;4.18;;
70946;SDS011;58605;48.700;8.760;2023-09-07T10:53:12;7.55;;;5.35;;
70946;SDS011;58605;48.700;8.760;2023-09-07T10:55:39;5.57;;;4.78;;
70946;SDS011;58605;48.700;8.760;2023-09-07T10:58:08;5.15;;;4.05;;
70946;SDS011;58605;48.700;8.760;2023-09-07T11:00:35;4.70;;;4.30;;
70946;SDS011;58605;48.700;8.760;2023-09-07T11:03:06;8.05;;;4.72;;
70946;SDS011;58605;48.700;8.760;2023-09-07T11:05:34;5.15;;;4.22;;
70946;SDS011;58605;48.700;8.760;2023-09-07T11:08:02;6.32;;;4.60;;
70946;SDS011;58605;48.700;8.760;2023-09-07T11:10:31;5.22;;;4.15;;
70946;SDS011;58605;48.700;8.760;2023-09-07T11:13:01;4.80;;;4.10;;
70946;SDS011;58605;48.700;8.760;2023-09-07T11:15:30;5.25;;;4.57;;
70946;SDS011;58605;48.700;8.760;2023-09-07T11:17:58;6.30;;;4.00;;
70946;SDS011;58605;48.700;8.760;2023-09-07T11:20:29;5.05;;;3.95;;
70946;SDS011;58605;48.700;8.760;2023-09-07T11:22:55;5.40;;;4.57;;
70946;SDS011;58605;48.700;8.760;2023-09-07T11:25:21;5.43;;;4.93;;
70946;SDS011;58605;48.700;8.760;2023-09-07T11:27:47;7.85;;;5.30;;
70946;SDS011;58605;48.700;8.760;2023-09-07T11:30:13;5.35;;;4.85;;
70946;SDS011;58605;48.700;8.760;2023-09-07T11:32:41;5.25;;;4.53;;
70946;SDS011;58605;48.700;8.760;2023-09-07T11:35:09;5.20;;;4.53;;
70946;SDS011;58605;48.700;8.760;2023-09-07T11:37:35;5.90;;;4.45;;
70946;SDS011;58605;48.700;8.760;2023-09-07T11:40:01;8.07;;;4.88;;
70946;SDS011;58605;48.700;8.760;2023-09-07T11:42:29;5.28;;;4.47;;
70946;SDS011;58605;48.700;8.760;2023-09-07T11:44:55;6.95;;;5.85;;
70946;SDS011;58605;48.700;8.760;2023-09-07T11:47:22;5.65;;;4.80;;
70946;SDS011;58605;48.700;8.760;2023-09-07T11:49:49;6.05;;;5.38;;
70946;SDS011;58605;48.700;8.760;2023-09-07T11:52:18;8.32;;;4.95;;
70946;SDS011;58605;48.700;8.760;2023-09-07T11:54:44;5.95;;;4.95;;
70946;SDS011;58605;48.700;8.760;2023-09-07T11:57:10;6.90;;;5.82;;
70946;SDS011;58605;48.700;8.760;2023-09-07T11:59:36;5.97;;;5.38;;
70946;SDS011;58605;48.700;8.760;2023-09-07T12:02:02;6.93;;;5.00;;
70946;SDS011;58605;48.700;8.760;2023-09-07T12:04:29;6.13;;;5.53;;
70946;SDS011;58605;48.700;8.760;2023-09-07T12:06:57;5.60;;;4.90;;
70946;SDS011;58605;48.700;8.760;2023-09-07T12:09:23;6.07;;;4.65;;
70946;SDS011;58605;48.700;8.760;2023-09-07T12:11:49;6.18;;;5.57;;
70946;SDS011;58605;48.700;8.760;2023-09-07T12:14:15;7.07;;;5.05;;
70946;SDS011;58605;48.700;8.760;2023-09-07T12:16:41;7.07;;;4.90;;
70946;SDS011;58605;48.700;8.760;2023-09-07T12:19:07;9.25;;;5.78;;
70946;SDS011;58605;48.700;8.760;2023-09-07T12:21:34;4.97;;;4.40;;
70946;SDS011;58605;48.700;8.760;2023-09-07T12:24:01;8.77;;;5.43;;
70946;SDS011;58605;48.700;8.760;2023-09-07T12:26:28;9.77;;;5.20;;
70946;SDS011;58605;48.700;8.760;2023-09-07T12:28:54;6.22;;;5.63;;
70946;SDS011;58605;48.700;8.760;2023-09-07T12:31:20;5.82;;;4.85;;
70946;SDS011;58605;48.700;8.760;2023-09-07T12:33:46;5.78;;;5.03;;
70946;SDS011;58605;48.700;8.760;2023-09-07T12:36:12;6.47;;;4.95;;
70946;SDS011;58605;48.700;8.760;2023-09-07T12:38:38;6.15;;;4.97;;
70946;SDS011;58605;48.700;8.760;2023-09-07T12:41:06;7.10;;;5.00;;
70946;SDS011;58605;48.700;8.760;2023-09-07T12:43:32;6.35;;;5.13;;
70946;SDS011;58605;48.700;8.760;2023-09-07T12:45:58;5.93;;;5.32;;
70946;SDS011;58605;48.700;8.760;2023-09-07T12:48:24;7.63;;;4.85;;
70946;SDS011;58605;48.700;8.760;2023-09-07T12:50:50;5.60;;;4.93;;
70946;SDS011;58605;48.700;8.760;2023-09-07T12:53:16;5.63;;;5.05;;
70946;SDS011;58605;48.700;8.760;2023-09-07T12:55:44;7.38;;;4.80;;
70946;SDS011;58605;48.700;8.760;2023-09-07T12:58:12;7.65;;;5.70;;
70946;SDS011;58605;48.700;8.760;2023-09-07T13:00:38;7.00;;;5.65;;
70946;SDS011;58605;48.700;8.760;2023-09-07T13:03:04;7.65;;;5.57;;
70946;SDS011;58605;48.700;8.760;2023-09-07T13:05:30;7.13;;;5.10;;
70946;SDS011;58605;48.700;8.760;2023-09-07T13:07:56;6.88;;;5.15;;
70946;SDS011;58605;48.700;8.760;2023-09-07T13:10:27;6.82;;;4.72;;
70946;SDS011;58605;48.700;8.760;2023-09-07T13:12:53;17.75;;;5.45;;
70946;SDS011;58605;48.700;8.760;2023-09-07T13:15:21;6.55;;;5.15;;
70946;SDS011;58605;48.700;8.760;2023-09-07T13:17:47;7.10;;;5.40;;
70946;SDS011;58605;48.700;8.760;2023-09-07T13:20:13;5.15;;;4.65;;
70946;SDS011;58605;48.700;8.760;2023-09-07T13:22:40;10.85;;;6.25;;
70946;SDS011;58605;48.700;8.760;2023-09-07T13:25:06;6.30;;;5.70;;
70946;SDS011;58605;48.700;8.760;2023-09-07T13:27:32;11.05;;;5.55;;
70946;SDS011;58605;48.700;8.760;2023-09-07T13:29:58;6.45;;;5.85;;
70946;SDS011;58605;48.700;8.760;2023-09-07T13:32:27;6.50;;;5.13;;
70946;SDS011;58605;48.700;8.760;2023-09-07T13:34:55;6.65;;;5.35;;
70946;SDS011;58605;48.700;8.760;2023-09-07T13:37:21;8.32;;;5.20;;
70946;SDS011;58605;48.700;8.760;2023-09-07T13:39:47;8.57;;;5.72;;
70946;SDS011;58605;48.700;8.760;2023-09-07T13:42:13;6.13;;;4.93;;
70946;SDS011;58605;48.700;8.760;2023-09-07T13:44:40;6.65;;;5.15;;
70946;SDS011;58605;48.700;8.760;2023-09-07T13:47:06;7.07;;;5.10;;
70946;SDS011;58605;48.700;8.760;2023-09-07T13:49:35;6.28;;;5.68;;
70946;SDS011;58605;48.700;8.760;2023-09-07T13:52:01;6.93;;;5.10;;
70946;SDS011;58605;48.700;8.760;2023-09-07T13:54:28;7.60;;;5.13;;
70946;SDS011;58605;48.700;8.760;2023-09-07T13:56:54;6.45;;;5.72;;
70946;SDS011;58605;48.700;8.760;2023-09-07T13:59:21;6.22;;;5.32;;
70946;SDS011;58605;48.700;8.760;2023-09-07T14:01:47;5.38;;;4.82;;
70946;SDS011;58605;48.700;8.760;2023-09-07T14:04:14;7.75;;;4.97;;
70946;SDS011;58605;48.700;8.760;2023-09-07T14:06:41;7.63;;;4.93;;
70946;SDS011;58605;48.700;8.760;2023-09-07T14:09:08;8.55;;;5.55;;
70946;SDS011;58605;48.700;8.760;2023-09-07T14:11:34;7.43;;;5.57;;
70946;SDS011;58605;48.700;8.760;2023-09-07T14:14:00;6.82;;;5.70;;
70946;SDS011;58605;48.700;8.760;2023-09-07T14:16:26;7.38;;;5.82;;
70946;SDS011;58605;48.700;8.760;2023-09-07T14:18:52;6.72;;;6.00;;
70946;SDS011;58605;48.700;8.760;2023-09-07T14:21:18;7.88;;;6.00;;
70946;SDS011;58605;48.700;8.760;2023-09-07T14:23:45;5.72;;;5.15;;
70946;SDS011;58605;48.700;8.760;2023-09-07T14:26:12;5.97;;;4.68;;
70946;SDS011;58605;48.700;8.760;2023-09-07T14:28:38;7.03;;;5.32;;
70946;SDS011;58605;48.700;8.760;2023-09-07T14:31:04;8.13;;;4.90;;
70946;SDS011;58605;48.700;8.760;2023-09-07T14:33:32;9.18;;;5.22;;
70946;SDS011;58605;48.700;8.760;2023-09-07T14:35:59;5.75;;;5.15;;
70946;SDS011;58605;48.700;8.760;2023-09-07T14:38:26;6.60;;;5.50;;
70946;SDS011;58605;48.700;8.760;2023-09-07T14:40:54;5.80;;;5.20;;
70946;SDS011;58605;48.700;8.760;2023-09-07T14:43:20;6.35;;;5.60;;
70946;SDS011;58605;48.700;8.760;2023-09-07T14:45:47;6.57;;;5.18;;
70946;SDS011;58605;48.700;8.760;2023-09-07T14:48:13;6.68;;;5.03;;